Bei Facebook empfehlenBei Twitter postenGoogle plusPinterest

Das Wetter im Erzgebirge am 08.04.2015

Wetter und Klima am 08.04.2015 Holzhau im Erzgebirge (630m ü.NN)
Letzte gemessene Temperatur und Uhrzeit der Messung23:45:00 Uhr2.10 °C
Temperatur (Maximum / Höchstwert) und Uhrzeit der Messung16:00:00 Uhr4.40 °C
Temperatur (Minimum / Tiefstwert) und Uhrzeit der Messung23:45:002.10 °C
Errechneter Absolutwert der Temperaturschwankungen zwischen Tmin und Tmax des Tages2.30 K
Errechnete Tagesmitteltemperatur3.27292 °C
Gesamt - Niederschlag des Tages (in flüssiger Form)0.00 Liter / m²
Luftdruck (Maximum / Höchstwert) und Zeitpunkt der Messung22:30:00 Uhr1028.80 hPa
Luftdruck (Minimum / Tiefstwert) und Zeitpunkt der Messung05:00:00 Uhr1025.30 hPa
Errechneter Absolutwert der Luftdruckschwankungen des Tages3.50 hPa
Höchste gemessene Windgeschwindigkeit und Uhrzeit der Messung12:15:00 Uhr10.44 km/h
Errechnete Windhäufigkeit in Relation zu den Messwerten des Tages5.20833 %
Niedrigste Windkühle (Windchill) und Zeitpunkt der Messung10:00:00 Uhr0.90 °C
Taupunkt (Maximum / Höchstwert) und Uhrzeit der Messung16:00:00 Uhr2.80 °C
Taupunkt (Minimum / Tiefstwert) und Uhrzeit der Messung00:15:000.00 °C
Anzahl der automatisch eingelesenen Messwerte 96

Detaillierte Wetter- und Klima- Messwerte für den 08.04.2015 in Holzhau im Erzgebirge (630m ü.NN)
ZeitTemperaturLuftdruckRel. LuftfeuchteWindWindrichtungWindchillTaupunktNiederschlag l/m²
23:45:002.10 °C1028.60 hPa92.00 %0.90 °C 
23:30:002.20 °C1028.60 hPa92.00 %1.00 °C 
23:15:002.30 °C1028.50 hPa92.00 %1.10 °C 
23:00:002.40 °C1028.60 hPa91.00 %1.10 °C 
22:45:002.40 °C1028.70 hPa91.00 %1.10 °C 
22:30:002.40 °C1028.80 hPa91.00 %1.10 °C 
22:15:002.40 °C1028.70 hPa91.00 %1.10 °C 
22:00:002.50 °C1028.70 hPa91.00 %1.20 °C 
21:45:002.70 °C1028.50 hPa91.00 %1.40 °C 
21:30:002.80 °C1028.30 hPa91.00 %1.50 °C 
21:15:002.90 °C1028.50 hPa91.00 %1.60 °C 
21:00:003.00 °C1028.40 hPa91.00 %1.70 °C 
20:45:003.00 °C1028.30 hPa91.00 %1.70 °C 
20:30:003.10 °C1028.20 hPa91.00 %1.80 °C 
20:15:003.00 °C1028.10 hPa91.00 %1.70 °C 
20:00:003.10 °C1027.90 hPa91.00 %1.80 °C 
19:45:003.20 °C1027.70 hPa91.00 %1.90 °C 
19:30:003.30 °C1027.70 hPa91.00 %2.00 °C 
19:15:003.30 °C1027.50 hPa91.00 %2.00 °C 
19:00:003.40 °C1027.50 hPa91.00 %2.10 °C 
18:45:003.40 °C1027.50 hPa91.00 %2.10 °C 
18:30:003.50 °C1027.30 hPa91.00 %2.20 °C 
18:15:003.60 °C1027.50 hPa90.00 %2.10 °C 
18:00:003.60 °C1027.40 hPa90.00 %2.10 °C 
17:45:003.60 °C1027.60 hPa90.00 %2.10 °C 
17:30:003.60 °C1027.40 hPa90.00 %2.10 °C 
17:15:003.80 °C1027.40 hPa90.00 %2.30 °C 
17:00:003.90 °C1027.30 hPa90.00 %2.40 °C 
16:45:004.10 °C1027.20 hPa90.00 %2.60 °C 
16:30:004.30 °C1027.20 hPa89.00 %2.70 °C 
16:15:004.30 °C1027.20 hPa89.00 %2.70 °C 
16:00:004.40 °C1027.10 hPa89.00 %2.80 °C 
15:45:004.30 °C1027.20 hPa89.00 %2.70 °C 
15:30:004.30 °C1027.20 hPa88.00 %2.50 °C 
15:15:004.30 °C1027.10 hPa88.00 %2.50 °C 
15:00:004.30 °C1027.10 hPa88.00 %2.50 °C 
14:45:004.20 °C1027.30 hPa88.00 %2.40 °C 
14:30:004.10 °C1027.10 hPa88.00 %2.30 °C 
14:15:004.10 °C1027.00 hPa88.00 %2.30 °C 
14:00:004.10 °C1027.00 hPa88.00 %2.30 °C 
13:45:004.00 °C1027.00 hPa88.00 %2.20 °C 
13:30:004.10 °C1026.90 hPa88.00 %2.30 °C 
13:15:003.90 °C1026.90 hPa89.00 %2.30 °C 
13:00:003.60 °C1026.70 hPa89.00 %2.00 °C 
12:45:003.80 °C1026.60 hPa89.00 %2.20 °C 
12:30:003.80 °C1026.60 hPa89.00 %2.20 °C 
12:15:003.80 °C1026.50 hPa89.00 %10.44 km/hW1.10 °C2.20 °C 
12:00:003.80 °C1026.30 hPa89.00 %2.20 °C 
11:45:003.80 °C1026.20 hPa89.00 %2.20 °C 
11:30:003.60 °C1026.10 hPa90.00 %2.10 °C 
11:15:003.60 °C1026.10 hPa90.00 %2.10 °C 
11:00:003.40 °C1026.00 hPa91.00 %2.10 °C 
10:45:003.10 °C1025.90 hPa91.00 %1.80 °C 
10:30:003.10 °C1025.90 hPa91.00 %1.80 °C 
10:15:003.10 °C1025.90 hPa91.00 %6.48 km/hNW1.40 °C1.80 °C 
10:00:003.20 °C1025.70 hPa91.00 %8.28 km/hNW0.90 °C1.90 °C 
09:45:003.20 °C1025.60 hPa90.00 %1.70 °C 
09:30:003.20 °C1025.70 hPa90.00 %1.70 °C 
09:15:003.20 °C1025.70 hPa89.00 %2.52 km/hNNW3.20 °C1.60 °C 
09:00:003.20 °C1025.70 hPa89.00 %1.60 °C 
08:45:003.20 °C1025.60 hPa89.00 %1.60 °C 
08:30:003.10 °C1025.70 hPa89.00 %4.68 km/hWNW3.10 °C1.50 °C 
08:15:003.10 °C1025.60 hPa88.00 %1.30 °C 
08:00:003.00 °C1025.60 hPa88.00 %1.20 °C 
07:45:002.90 °C1025.60 hPa88.00 %1.10 °C 
07:30:002.90 °C1025.70 hPa88.00 %1.10 °C 
07:15:002.90 °C1025.50 hPa88.00 %1.10 °C 
07:00:002.90 °C1025.40 hPa87.00 %1.00 °C 
06:45:002.90 °C1025.50 hPa87.00 %1.00 °C 
06:30:002.90 °C1025.60 hPa86.00 %0.80 °C 
06:15:002.90 °C1025.50 hPa86.00 %0.80 °C 
06:00:002.90 °C1025.50 hPa86.00 %0.80 °C 
05:45:002.90 °C1025.40 hPa85.00 %0.60 °C 
05:30:002.90 °C1025.40 hPa85.00 %0.60 °C 
05:15:002.90 °C1025.40 hPa84.00 %0.50 °C 
05:00:003.00 °C1025.30 hPa84.00 %0.60 °C 
04:45:003.10 °C1025.50 hPa84.00 %0.70 °C 
04:30:003.10 °C1025.50 hPa84.00 %0.70 °C 
04:15:003.10 °C1025.70 hPa84.00 %0.70 °C 
04:00:003.00 °C1025.70 hPa83.00 %0.40 °C 
03:45:003.00 °C1025.90 hPa83.00 %0.40 °C 
03:30:002.90 °C1025.70 hPa83.00 %0.30 °C 
03:15:002.90 °C1025.70 hPa83.00 %0.30 °C 
03:00:003.10 °C1026.00 hPa83.00 %0.50 °C 
02:45:003.10 °C1025.80 hPa83.00 %0.50 °C 
02:30:003.20 °C1026.10 hPa83.00 %0.60 °C 
02:15:003.20 °C1026.40 hPa83.00 %0.60 °C 
02:00:003.20 °C1026.20 hPa83.00 %0.60 °C 
01:45:003.20 °C1026.30 hPa83.00 %0.60 °C 
01:30:003.10 °C1026.30 hPa83.00 %0.50 °C 
01:15:003.10 °C1026.30 hPa83.00 %0.50 °C 
01:00:003.10 °C1026.20 hPa83.00 %0.50 °C 
00:45:002.90 °C1026.30 hPa83.00 %0.30 °C 
00:30:002.90 °C1026.30 hPa82.00 %0.10 °C 
00:15:002.90 °C1026.40 hPa81.00 %0.00 °C 
00:00:003.00 °C1026.40 hPa81.00 %0.10 °C 

Permanenter Link zu dieser Seite: Wetter im Erzgebirge am 08.04.2015
Performance-Info: Die Erstellung der Seite / Statistik(en) / Tabelle(n) erforderte 5 Datenbankserver-Abfrage(n) und dauerte 123 Millisekunden. (Dieser Messwert ist von der Gesamt-Auslastung des Servers abhängig.)
Erzgebirge - Wetter | Erzgebirge - Wetter (Mobilgeräte) | Komplette Klimadatenbank